createdAt,value
2022-12-31T00:00:49.679Z,99988.34
2022-12-31T00:03:19.574Z,99995.38
2022-12-31T00:05:49.428Z,99990.16
2022-12-31T00:08:19.200Z,99999.81
2022-12-31T00:10:51.989Z,99989.28
2022-12-31T00:13:21.925Z,99996.25
2022-12-31T00:15:51.632Z,100000.66
2022-12-31T00:18:21.332Z,99997.09
2022-12-31T00:20:51.069Z,99998.84
2022-12-31T00:23:20.813Z,100000.66
2022-12-31T00:25:53.172Z,99990.94
2022-12-31T00:28:22.916Z,99993.59
2022-12-31T00:30:52.680Z,99983.94
2022-12-31T00:33:22.592Z,99991.81
2022-12-31T00:35:52.389Z,99995.34
2022-12-31T00:38:22.105Z,100001.47
2022-12-31T00:40:54.483Z,100002.41
2022-12-31T00:43:24.207Z,100006.78
2022-12-31T00:45:54.028Z,100008.59
2022-12-31T00:48:24.003Z,99997.19
2022-12-31T00:50:54.482Z,99999.84
2022-12-31T00:53:24.486Z,100003.34
2022-12-31T00:56:02.614Z,100008.63
2022-12-31T00:58:32.567Z,100005.13
2022-12-31T01:01:02.401Z,100000.75
2022-12-31T01:03:32.287Z,100010.47
2022-12-31T01:06:02.460Z,99999.06
2022-12-31T01:08:32.283Z,100012.25
2022-12-31T01:11:18.153Z,100010.50
2022-12-31T01:13:49.049Z,100007.00
2022-12-31T01:16:20.407Z,100014.88
2022-12-31T01:18:50.143Z,100016.66
2022-12-31T01:21:21.596Z,100012.25
2022-12-31T01:23:51.323Z,100010.50
2022-12-31T01:26:24.301Z,100019.25
2022-12-31T01:28:54.105Z,100015.78
2022-12-31T01:31:25.498Z,100024.59
2022-12-31T01:33:55.961Z,100020.19
2022-12-31T01:36:27.393Z,100016.72
2022-12-31T01:39:00.266Z,100025.50
2022-12-31T01:41:35.458Z,100028.19
2022-12-31T01:44:26.328Z,100035.22
2022-12-31T01:46:59.171Z,100030.81
2022-12-31T01:49:34.141Z,100031.72
2022-12-31T01:52:06.249Z,100029.94
2022-12-31T01:54:42.467Z,100036.13
2022-12-31T01:57:16.081Z,100035.25
2022-12-31T01:59:47.964Z,100044.06
2022-12-31T02:02:18.916Z,100033.53
2022-12-31T02:04:50.024Z,100047.56
2022-12-31T02:07:19.781Z,100050.22
2022-12-31T02:09:49.535Z,100041.44
2022-12-31T02:12:22.374Z,100043.16
2022-12-31T02:14:54.882Z,100046.69
2022-12-31T02:17:35.448Z,100049.34
2022-12-31T02:20:34.040Z,100044.97
2022-12-31T02:23:31.034Z,100045.91
2022-12-31T02:26:29.355Z,100034.38
2022-12-31T02:29:31.713Z,100039.63
2022-12-31T02:32:08.828Z,100045.69
2022-12-31T02:34:41.051Z,100039.56
2022-12-31T02:37:16.260Z,100036.00
2022-12-31T02:39:47.541Z,100032.44
2022-12-31T02:42:17.464Z,100027.16
2022-12-31T02:44:47.231Z,100032.41
2022-12-31T02:47:27.277Z,100030.63
2022-12-31T02:50:23.045Z,100034.09
2022-12-31T02:53:01.882Z,100030.56
2022-12-31T02:55:42.936Z,100027.03
2022-12-31T02:58:21.728Z,100026.16
2022-12-31T03:01:07.560Z,100027.03
2022-12-31T03:03:41.168Z,100025.22
2022-12-31T03:06:15.120Z,100027.84
2022-12-31T03:08:57.805Z,100026.09
2022-12-31T03:11:39.873Z,100017.28
2022-12-31T03:14:09.696Z,100013.72
2022-12-31T03:16:39.583Z,100011.97
2022-12-31T03:19:24.408Z,100015.47
2022-12-31T03:22:09.031Z,100035.63
2022-12-31T03:24:51.148Z,100033.84
2022-12-31T03:27:20.902Z,100023.28
2022-12-31T03:29:50.654Z,100021.53
2022-12-31T03:32:20.386Z,100018.88
2022-12-31T03:34:52.813Z,100030.31
2022-12-31T03:37:22.548Z,100034.66
2022-12-31T03:39:52.292Z,100023.28
2022-12-31T03:42:22.057Z,100025.94
2022-12-31T03:44:51.863Z,100032.06
2022-12-31T03:47:21.603Z,100032.06
2022-12-31T03:49:54.277Z,100026.81
2022-12-31T03:52:24.276Z,100029.47
2022-12-31T03:54:54.071Z,100020.66
2022-12-31T03:57:23.899Z,100012.78
2022-12-31T03:59:53.763Z,100018.03
2022-12-31T04:02:28.843Z,100018.06
2022-12-31T04:05:01.912Z,100007.53
2022-12-31T04:07:31.660Z,100023.31
2022-12-31T04:10:01.420Z,100012.75
2022-12-31T04:12:31.155Z,100016.25
2022-12-31T04:15:00.990Z,100029.41
2022-12-31T04:17:30.874Z,100028.53
2022-12-31T04:20:03.288Z,100029.41
2022-12-31T04:22:33.025Z,100038.13
2022-12-31T04:25:02.850Z,100038.09
2022-12-31T04:27:32.640Z,100031.06
2022-12-31T04:30:02.377Z,100039.84
2022-12-31T04:32:32.131Z,100038.09
2022-12-31T04:35:04.507Z,100027.56
2022-12-31T04:37:34.258Z,100027.56
2022-12-31T04:40:06.732Z,100028.44
2022-12-31T04:42:36.888Z,100031.06
2022-12-31T04:45:07.805Z,100027.56
2022-12-31T04:47:37.520Z,100025.81
2022-12-31T04:50:10.658Z,100021.41
2022-12-31T04:52:42.910Z,100026.69
2022-12-31T04:55:13.911Z,100030.19
2022-12-31T04:57:44.246Z,100025.72
2022-12-31T05:00:15.096Z,100027.47
2022-12-31T05:02:44.927Z,100036.25
2022-12-31T05:05:17.547Z,100039.78
2022-12-31T05:07:47.262Z,100046.78
2022-12-31T05:10:16.979Z,100051.16
2022-12-31T05:12:46.721Z,100054.66
2022-12-31T05:15:16.503Z,100053.75
2022-12-31T05:17:46.270Z,100034.44
2022-12-31T05:20:18.645Z,100023.97
2022-12-31T05:22:48.414Z,100021.28
2022-12-31T05:25:18.223Z,100025.69
2022-12-31T05:27:48.013Z,100023.03
2022-12-31T05:30:18.730Z,100023.03
2022-12-31T05:32:48.710Z,100025.69
2022-12-31T05:35:21.523Z,100008.13
2022-12-31T05:37:51.248Z,100021.25
2022-12-31T05:40:21.192Z,100016.84
2022-12-31T05:42:52.143Z,100016.84
2022-12-31T05:45:26.819Z,100009.88
2022-12-31T05:48:00.015Z,100015.09
2022-12-31T05:50:32.400Z,100036.16
2022-12-31T05:53:02.139Z,100032.66
2022-12-31T05:55:31.902Z,100053.72
2022-12-31T05:58:01.637Z,100062.53
2022-12-31T06:00:31.367Z,100061.66
2022-12-31T06:03:01.182Z,100052.88
2022-12-31T06:05:33.648Z,100063.41
2022-12-31T06:08:03.338Z,100066.88
2022-12-31T06:10:33.104Z,100071.25
2022-12-31T06:13:02.898Z,100081.69
2022-12-31T06:15:32.655Z,100083.44
2022-12-31T06:18:02.487Z,100080.72
2022-12-31T06:20:34.934Z,100087.66
2022-12-31T06:23:04.681Z,100090.22
2022-12-31T06:25:34.408Z,100097.09
2022-12-31T06:28:04.144Z,100093.53
2022-12-31T06:30:34.223Z,100081.22
2022-12-31T06:33:04.046Z,100083.78
2022-12-31T06:35:36.499Z,100089.03
2022-12-31T06:38:06.292Z,100088.16
2022-12-31T06:40:36.153Z,100086.38
2022-12-31T06:43:05.939Z,100089.00
2022-12-31T06:45:35.673Z,100076.72
2022-12-31T06:48:05.454Z,100083.75
2022-12-31T06:50:37.886Z,100075.84
2022-12-31T06:53:07.650Z,100068.00
2022-12-31T06:55:38.158Z,100071.59
2022-12-31T06:58:08.813Z,100082.19
2022-12-31T07:00:39.125Z,100080.47
2022-12-31T07:03:29.647Z,100070.00
2022-12-31T07:06:10.305Z,100071.81
2022-12-31T07:08:50.038Z,100072.72
2022-12-31T07:11:25.090Z,100078.00
2022-12-31T07:14:14.356Z,100088.50
2022-12-31T07:16:58.839Z,100081.50
2022-12-31T07:19:38.387Z,100072.72
2022-12-31T07:22:15.965Z,100070.97
2022-12-31T07:24:46.506Z,100066.53
2022-12-31T07:27:44.226Z,100056.00
2022-12-31T07:30:18.809Z,100064.78
2022-12-31T07:33:12.491Z,100080.56
2022-12-31T07:35:51.455Z,100077.06
2022-12-31T07:38:32.662Z,100083.19
2022-12-31T07:41:12.662Z,100076.16
2022-12-31T07:43:56.023Z,100084.03
2022-12-31T07:46:31.698Z,100066.53
2022-12-31T07:49:02.092Z,100045.53
2022-12-31T07:51:32.479Z,100072.78
2022-12-31T07:54:10.173Z,100072.81
2022-12-31T07:56:43.950Z,100069.38
2022-12-31T07:59:24.888Z,100055.38
2022-12-31T08:02:02.752Z,100048.34
2022-12-31T08:04:43.403Z,100063.31
2022-12-31T08:07:23.869Z,100089.63
2022-12-31T08:10:05.254Z,100058.09
2022-12-31T08:12:37.927Z,100047.56
2022-12-31T08:15:16.231Z,100051.94
2022-12-31T08:17:46.904Z,100034.41
2022-12-31T08:20:17.701Z,100031.75
2022-12-31T08:23:14.318Z,100012.47
2022-12-31T08:26:02.248Z,100015.09
2022-12-31T08:28:49.803Z,100026.53
2022-12-31T08:31:22.888Z,100020.41
2022-12-31T08:34:05.471Z,100014.25
2022-12-31T08:36:43.336Z,100030.94
2022-12-31T08:39:26.095Z,100029.22
2022-12-31T08:42:01.299Z,100026.63
2022-12-31T08:44:39.415Z,100024.88
2022-12-31T08:47:19.990Z,100029.28
2022-12-31T08:49:50.344Z,100031.91
2022-12-31T08:52:26.449Z,100023.19
2022-12-31T08:54:57.294Z,100020.53
2022-12-31T08:57:38.025Z,100032.88
2022-12-31T09:00:12.352Z,100039.06
2022-12-31T09:03:02.142Z,100022.41
2022-12-31T09:05:38.112Z,100014.53
2022-12-31T09:08:19.657Z,100001.41
2022-12-31T09:10:56.952Z,100010.25
2022-12-31T09:13:39.140Z,100015.56
2022-12-31T09:16:16.820Z,100020.88
2022-12-31T09:18:46.767Z,100010.47
2022-12-31T09:21:18.356Z,100019.31
2022-12-31T09:23:48.791Z,100014.13
2022-12-31T09:26:34.107Z,100008.09
2022-12-31T09:29:18.194Z,100016.97
2022-12-31T09:31:55.698Z,100016.19
2022-12-31T09:34:31.380Z,100022.44
2022-12-31T09:37:08.553Z,100026.94
2022-12-31T09:39:44.948Z,100023.47
2022-12-31T09:42:56.789Z,100021.84
2022-12-31T09:45:51.236Z,100020.16
2022-12-31T09:48:54.015Z,100032.53
2022-12-31T09:51:33.921Z,100027.31
2022-12-31T09:54:22.840Z,100037.88
2022-12-31T09:57:07.939Z,100042.38
2022-12-31T09:59:43.298Z,100035.34
2022-12-31T10:02:26.805Z,100037.97
2022-12-31T10:05:11.578Z,100034.53
2022-12-31T10:07:53.888Z,100043.34
2022-12-31T10:10:30.038Z,100041.63
2022-12-31T10:13:30.706Z,100052.22
2022-12-31T10:16:17.390Z,100045.22
2022-12-31T10:19:24.694Z,100048.75
2022-12-31T10:22:06.780Z,100044.38
2022-12-31T10:25:00.879Z,100055.84
2022-12-31T10:27:41.794Z,100069.97
2022-12-31T10:30:18.041Z,100066.44
2022-12-31T10:33:01.861Z,100066.47
2022-12-31T10:35:43.910Z,100082.34
2022-12-31T10:38:30.120Z,100079.69
2022-12-31T10:41:50.366Z,100078.84
2022-12-31T10:44:49.090Z,100079.72
2022-12-31T10:47:48.587Z,100081.47
2022-12-31T10:50:48.090Z,100076.25
2022-12-31T10:53:56.562Z,100069.22
2022-12-31T10:57:09.502Z,100055.19
2022-12-31T11:00:09.285Z,100060.56
2022-12-31T11:03:12.739Z,100051.81
2022-12-31T11:06:12.430Z,100060.66
2022-12-31T11:09:16.455Z,100059.88
2022-12-31T11:11:56.084Z,100081.06
2022-12-31T11:14:52.821Z,100061.81
2022-12-31T11:17:37.616Z,100060.94
2022-12-31T11:20:26.220Z,100058.34
2022-12-31T11:23:13.288Z,100068.03
2022-12-31T11:25:52.725Z,100072.47
2022-12-31T11:28:43.048Z,100084.81
2022-12-31T11:31:22.836Z,100090.97
2022-12-31T11:34:05.124Z,100096.25
2022-12-31T11:36:43.508Z,100106.81
2022-12-31T11:39:37.496Z,100107.72
2022-12-31T11:42:22.102Z,100106.00
2022-12-31T11:45:02.459Z,100086.59
2022-12-31T11:48:28.573Z,100081.31
2022-12-31T11:50:51.713Z,100088.34
2022-12-31T11:53:44.530Z,100099.81
2022-12-31T11:56:20.051Z,100098.03
2022-12-31T11:58:52.498Z,100084.00
2022-12-31T12:01:29.810Z,100087.50
2022-12-31T12:03:59.620Z,100082.22
2022-12-31T12:06:34.046Z,100069.03
2022-12-31T12:09:09.114Z,100075.25
2022-12-31T12:11:41.818Z,100081.41
2022-12-31T12:14:22.694Z,100077.91
2022-12-31T12:17:04.806Z,100078.78
2022-12-31T12:19:36.733Z,100065.56
2022-12-31T12:22:14.005Z,100079.69
2022-12-31T12:24:56.570Z,100056.78
2022-12-31T12:27:30.743Z,100083.19
2022-12-31T12:30:00.487Z,100076.16
2022-12-31T12:32:32.842Z,100087.63
2022-12-31T12:35:02.798Z,100082.34
2022-12-31T12:37:36.258Z,100089.41
2022-12-31T12:40:09.828Z,100085.00
2022-12-31T12:42:48.934Z,100085.88
2022-12-31T12:45:20.834Z,100092.94
2022-12-31T12:47:58.810Z,100096.44
2022-12-31T12:50:39.562Z,100091.13
2022-12-31T12:53:34.844Z,100098.16
2022-12-31T12:56:15.158Z,100101.66
2022-12-31T12:58:55.203Z,100089.34
2022-12-31T13:01:35.022Z,100099.91
2022-12-31T13:04:41.095Z,100085.81
2022-12-31T13:07:27.226Z,100099.88
2022-12-31T13:10:17.963Z,100108.66
2022-12-31T13:15:55.787Z,100142.13
2022-12-31T13:18:40.800Z,100126.28
2022-12-31T13:21:32.699Z,100137.72
2022-12-31T13:24:13.094Z,100129.75
2022-12-31T13:26:50.326Z,100121.84
2022-12-31T13:29:25.049Z,100138.56
2022-12-31T13:31:57.573Z,100134.16
2022-12-31T13:34:31.677Z,100131.53
2022-12-31T13:37:09.637Z,100150.94
2022-12-31T13:39:43.193Z,100138.59
2022-12-31T13:42:23.649Z,100133.31
2022-12-31T13:44:59.032Z,100148.25
2022-12-31T13:47:36.238Z,100148.25
2022-12-31T13:50:14.698Z,100147.31
2022-12-31T13:52:51.676Z,100146.41
2022-12-31T13:55:25.799Z,100144.63
2022-12-31T13:57:59.369Z,100146.34
2022-12-31T14:00:32.940Z,100144.56
2022-12-31T14:03:12.856Z,100162.13
2022-12-31T14:05:50.626Z,100153.25
2022-12-31T14:08:22.954Z,100163.78
2022-12-31T14:11:05.208Z,100169.03
2022-12-31T14:13:54.204Z,100175.13
2022-12-31T14:16:29.349Z,100172.44
2022-12-31T14:19:07.679Z,100172.41
2022-12-31T14:21:44.216Z,100178.53
2022-12-31T14:24:21.725Z,100169.72
2022-12-31T14:26:55.501Z,100157.44
2022-12-31T14:29:34.814Z,100167.13
2022-12-31T14:32:29.876Z,100172.41
2022-12-31T14:35:16.641Z,100176.78
2022-12-31T14:37:55.291Z,100183.84
2022-12-31T14:40:33.059Z,100189.19
2022-12-31T14:43:16.171Z,100200.69
2022-12-31T14:45:59.241Z,100190.13
2022-12-31T14:48:39.423Z,100207.72
2022-12-31T14:51:09.747Z,100200.72
2022-12-31T14:53:39.571Z,100199.81
2022-12-31T14:56:43.211Z,100206.03
2022-12-31T14:59:29.796Z,100212.19
2022-12-31T15:02:00.900Z,100221.81
2022-12-31T15:04:34.924Z,100207.75
2022-12-31T15:07:13.961Z,100213.88
2022-12-31T15:09:54.122Z,100218.28
2022-12-31T15:12:44.935Z,100216.47
2022-12-31T15:15:33.547Z,100220.84
2022-12-31T15:18:20.087Z,100224.34
2022-12-31T15:21:17.736Z,100230.47
2022-12-31T15:23:49.778Z,100234.81
2022-12-31T15:26:25.967Z,100244.50
2022-12-31T15:29:08.231Z,100248.00
2022-12-31T15:31:39.454Z,100243.53
2022-12-31T15:34:24.352Z,100247.91
2022-12-31T15:36:56.886Z,100247.91
2022-12-31T15:39:30.403Z,100257.53
2022-12-31T15:42:36.780Z,100276.88
2022-12-31T15:44:59.545Z,100267.19
2022-12-31T15:47:32.482Z,100267.16
2022-12-31T15:50:05.307Z,100257.47
2022-12-31T15:52:42.954Z,100268.00
2022-12-31T15:55:24.943Z,100270.63
2022-12-31T15:57:57.210Z,100268.81
2022-12-31T16:00:40.692Z,100274.94
2022-12-31T16:03:23.922Z,100270.50
2022-12-31T16:05:55.703Z,100258.19
2022-12-31T16:08:28.508Z,100258.19
2022-12-31T16:10:58.923Z,100241.47
2022-12-31T16:13:32.378Z,100245.91
2022-12-31T16:16:08.488Z,100240.66
2022-12-31T16:18:42.161Z,100243.28
2022-12-31T16:21:27.056Z,100233.66
2022-12-31T16:23:59.004Z,100238.00
2022-12-31T16:26:34.523Z,100222.19
2022-12-31T16:29:05.426Z,100209.03
2022-12-31T16:31:38.005Z,100217.84
2022-12-31T16:34:14.557Z,100190.63
2022-12-31T16:36:44.767Z,100217.88
2022-12-31T16:39:33.942Z,100213.50
2022-12-31T16:42:21.775Z,100192.38
2022-12-31T16:44:52.927Z,100199.41
2022-12-31T16:47:28.834Z,100210.00
2022-12-31T16:50:05.555Z,100197.69
2022-12-31T16:52:38.555Z,100196.81
2022-12-31T16:55:11.089Z,100219.72
2022-12-31T16:57:43.452Z,100201.25
2022-12-31T17:00:20.904Z,100197.75
2022-12-31T17:03:02.523Z,100209.19
2022-12-31T17:05:32.744Z,100201.28
2022-12-31T17:08:22.567Z,100205.69
2022-12-31T17:10:52.279Z,100205.66
2022-12-31T17:13:37.462Z,100185.44
2022-12-31T17:16:07.812Z,100203.91
2022-12-31T17:18:41.908Z,100199.56
2022-12-31T17:21:13.423Z,100198.69
2022-12-31T17:23:44.816Z,100196.91
2022-12-31T17:26:16.507Z,100199.56
2022-12-31T17:28:48.517Z,100201.34
2022-12-31T17:31:37.577Z,100191.72
2022-12-31T17:34:24.242Z,100193.47
2022-12-31T17:37:05.269Z,100196.09
2022-12-31T17:39:52.370Z,100182.91
2022-12-31T17:42:32.729Z,100187.34
2022-12-31T17:45:04.464Z,100170.59
2022-12-31T17:47:37.734Z,100173.25
2022-12-31T17:50:25.128Z,100177.66
2022-12-31T17:52:58.677Z,100182.97
2022-12-31T17:55:28.436Z,100179.50
2022-12-31T17:58:00.780Z,100198.88
2022-12-31T18:00:30.655Z,100196.25
2022-12-31T18:03:00.524Z,100198.94
2022-12-31T18:05:32.948Z,100195.44
2022-12-31T18:08:02.710Z,100188.41
2022-12-31T18:10:37.233Z,100203.38
2022-12-31T18:13:08.549Z,100215.69
2022-12-31T18:15:38.315Z,100212.22
2022-12-31T18:18:24.520Z,100211.34
2022-12-31T18:21:01.475Z,100202.50
2022-12-31T18:23:34.191Z,100204.28
2022-12-31T18:26:03.913Z,100193.72
2022-12-31T18:28:34.031Z,100177.88
2022-12-31T18:31:03.929Z,100186.72
2022-12-31T18:33:33.755Z,100191.16
2022-12-31T18:36:09.318Z,100186.75
2022-12-31T18:38:40.027Z,100188.53
2022-12-31T18:41:11.350Z,100192.97
2022-12-31T18:43:41.043Z,100190.34
2022-12-31T18:46:13.973Z,100183.28
2022-12-31T18:48:44.418Z,100168.34
2022-12-31T18:51:20.680Z,100171.88
2022-12-31T18:53:51.093Z,100175.41
2022-12-31T18:56:22.580Z,100175.44
2022-12-31T18:58:52.482Z,100182.47
2022-12-31T19:01:30.856Z,100176.34
2022-12-31T19:04:02.775Z,100179.88
2022-12-31T19:06:35.134Z,100177.22
2022-12-31T19:09:13.232Z,100172.84
2022-12-31T19:11:54.598Z,100172.84
2022-12-31T19:14:26.819Z,100176.41
2022-12-31T19:19:28.938Z,100170.28
2022-12-31T19:22:01.311Z,100163.25
2022-12-31T19:24:31.274Z,100164.16
2022-12-31T19:27:01.165Z,100173.00
2022-12-31T19:29:31.350Z,100166.84
2022-12-31T19:32:02.483Z,100165.13
2022-12-31T19:34:32.479Z,100162.53
2022-12-31T19:37:04.853Z,100159.91
2022-12-31T19:39:34.581Z,100157.31
2022-12-31T19:42:04.322Z,100161.72
2022-12-31T19:44:34.094Z,100158.22
2022-12-31T19:47:04.078Z,100162.63
2022-12-31T19:49:33.808Z,100149.41
2022-12-31T19:52:06.382Z,100142.41
2022-12-31T19:54:36.170Z,100153.84
2022-12-31T19:57:05.958Z,100144.19
2022-12-31T19:59:35.716Z,100150.34
2022-12-31T20:02:05.870Z,100156.56
2022-12-31T20:04:35.665Z,100154.81
2022-12-31T20:07:08.151Z,100148.66
2022-12-31T20:09:37.942Z,100152.25
2022-12-31T20:12:08.082Z,100129.31
2022-12-31T20:14:37.843Z,100148.72
2022-12-31T20:17:07.670Z,100152.28
2022-12-31T20:19:37.619Z,100146.13
2022-12-31T20:22:09.978Z,100149.66
2022-12-31T20:24:39.737Z,100140.84
2022-12-31T20:27:16.538Z,100155.84
2022-12-31T20:29:48.567Z,100160.25
2022-12-31T20:32:18.311Z,100159.41
2022-12-31T20:34:48.018Z,100162.03
2022-12-31T20:37:20.454Z,100170.00
2022-12-31T20:39:50.255Z,100174.44
2022-12-31T20:42:20.044Z,100185.91
2022-12-31T20:44:49.846Z,100183.25
2022-12-31T20:47:19.634Z,100170.03
2022-12-31T20:52:41.792Z,100190.28
2022-12-31T20:55:13.871Z,100199.97
2022-12-31T20:57:43.754Z,100200.84
2022-12-31T21:00:15.053Z,100202.59
2022-12-31T21:02:50.983Z,100167.31
2022-12-31T21:05:24.274Z,100205.19
2022-12-31T21:07:56.901Z,100182.28
2022-12-31T21:10:26.845Z,100224.53
2022-12-31T21:12:53.983Z,100196.31
2022-12-31T21:15:24.262Z,100199.78
2022-12-31T21:17:54.026Z,100200.66
2022-12-31T21:20:23.811Z,100220.88
2022-12-31T21:22:56.177Z,100203.19
2022-12-31T21:25:25.933Z,100210.16
2022-12-31T21:27:55.691Z,100203.09
2022-12-31T21:30:25.490Z,100213.63
2022-12-31T21:32:55.242Z,100222.38
2022-12-31T21:35:42.661Z,100220.59
2022-12-31T21:38:16.045Z,100204.69
2022-12-31T21:40:45.930Z,100213.44
2022-12-31T21:43:16.786Z,100224.84
2022-12-31T21:45:46.681Z,100218.66
2022-12-31T21:48:21.489Z,100216.88
2022-12-31T21:50:53.123Z,100216.81
2022-12-31T21:53:35.984Z,100213.25
2022-12-31T21:56:14.625Z,100214.97
2022-12-31T21:58:46.238Z,100206.19
2022-12-31T22:01:33.601Z,100220.25
2022-12-31T22:04:03.469Z,100209.69
2022-12-31T22:06:34.320Z,100222.03
2022-12-31T22:09:06.877Z,100229.06
2022-12-31T22:11:36.654Z,100219.41
2022-12-31T22:14:06.367Z,100241.41
2022-12-31T22:16:36.162Z,100242.34
2022-12-31T22:19:05.951Z,100235.31
2022-12-31T22:21:35.759Z,100252.97
2022-12-31T22:24:08.900Z,100241.53
2022-12-31T22:26:44.541Z,100238.88
2022-12-31T22:29:16.262Z,100252.97
2022-12-31T22:31:46.038Z,100256.50
2022-12-31T22:34:15.923Z,100257.41
2022-12-31T22:36:45.693Z,100268.88
2022-12-31T22:39:44.618Z,100264.47
2022-12-31T22:42:09.328Z,100266.22
2022-12-31T22:44:39.120Z,100260.97
2022-12-31T22:47:08.901Z,100259.22
2022-12-31T22:49:38.672Z,100268.91
2022-12-31T22:52:08.957Z,100269.81
2022-12-31T22:54:41.563Z,100266.34
2022-12-31T22:57:17.811Z,100262.81
2022-12-31T22:59:49.789Z,100259.28
2022-12-31T23:02:22.495Z,100259.28
2022-12-31T23:04:52.371Z,100264.56
2022-12-31T23:07:42.038Z,100249.63
2022-12-31T23:10:30.277Z,100253.19
2022-12-31T23:13:21.698Z,100255.84
2022-12-31T23:16:03.903Z,100265.59
2022-12-31T23:18:46.134Z,100259.44
2022-12-31T23:21:29.746Z,100263.88
2022-12-31T23:23:59.678Z,100257.72
2022-12-31T23:26:42.089Z,100273.59
2022-12-31T23:29:13.014Z,100267.44
2022-12-31T23:31:42.865Z,100257.75
2022-12-31T23:34:12.845Z,100268.31
2022-12-31T23:36:42.570Z,100249.84
2022-12-31T23:39:13.569Z,100248.94
2022-12-31T23:41:45.904Z,100255.97
2022-12-31T23:44:15.637Z,100252.44
2022-12-31T23:46:46.087Z,100270.94
2022-12-31T23:49:15.829Z,100265.66
2022-12-31T23:51:45.767Z,100263.94
2022-12-31T23:54:16.004Z,100267.47
2022-12-31T23:56:48.367Z,100269.19
2022-12-31T23:59:18.570Z,100263.03
